Webcam

2024/03/02 08:50 EBBR 020850Z 16010KT 9999 FEW019 08/03 Q1000 NOSIG

Webcam

--- Refresh now ---